sensor_id;sensor_type;location;lat;lon;timestamp;pressure;altitude;pressure_sealevel;temperature;humidity
27040;BME280;14589;51.578;7.306;2023-05-07T00:02:12;101124.63;;;14.62;92.38
27040;BME280;14589;51.578;7.306;2023-05-07T00:04:43;101122.91;;;14.61;92.57
27040;BME280;14589;51.578;7.306;2023-05-07T00:07:15;101113.88;;;14.61;92.32
27040;BME280;14589;51.578;7.306;2023-05-07T00:09:45;101125.81;;;14.60;92.13
27040;BME280;14589;51.578;7.306;2023-05-07T00:12:15;101127.34;;;14.62;92.60
27040;BME280;14589;51.578;7.306;2023-05-07T00:14:46;101128.38;;;14.61;92.50
27040;BME280;14589;51.578;7.306;2023-05-07T00:17:16;101137.41;;;14.62;92.45
27040;BME280;14589;51.578;7.306;2023-05-07T00:19:47;101136.56;;;14.61;92.53
27040;BME280;14589;51.578;7.306;2023-05-07T00:22:17;101136.88;;;14.58;92.37
27040;BME280;14589;51.578;7.306;2023-05-07T00:24:48;101136.00;;;14.57;92.83
27040;BME280;14589;51.578;7.306;2023-05-07T00:27:18;101131.91;;;14.53;92.28
27040;BME280;14589;51.578;7.306;2023-05-07T00:29:48;101143.00;;;14.52;92.35
27040;BME280;14589;51.578;7.306;2023-05-07T00:32:19;101132.41;;;14.49;92.47
27040;BME280;14589;51.578;7.306;2023-05-07T00:34:50;101129.84;;;14.47;92.37
27040;BME280;14589;51.578;7.306;2023-05-07T00:37:21;101137.19;;;14.47;92.76
27040;BME280;14589;51.578;7.306;2023-05-07T00:39:51;101136.66;;;14.43;92.73
27040;BME280;14589;51.578;7.306;2023-05-07T00:42:22;101149.44;;;14.43;92.98
27040;BME280;14589;51.578;7.306;2023-05-07T00:44:52;101135.09;;;14.41;92.71
27040;BME280;14589;51.578;7.306;2023-05-07T00:47:23;101138.31;;;14.36;92.84
27040;BME280;14589;51.578;7.306;2023-05-07T00:49:57;101125.97;;;14.32;93.07
27040;BME280;14589;51.578;7.306;2023-05-07T00:52:28;101130.22;;;14.27;92.84
27040;BME280;14589;51.578;7.306;2023-05-07T00:55:04;101132.28;;;14.25;93.26
27040;BME280;14589;51.578;7.306;2023-05-07T00:57:36;101122.38;;;14.24;93.40
27040;BME280;14589;51.578;7.306;2023-05-07T01:00:08;101116.38;;;14.20;93.47
27040;BME280;14589;51.578;7.306;2023-05-07T01:02:39;101117.03;;;14.14;93.29
27040;BME280;14589;51.578;7.306;2023-05-07T01:05:12;101115.84;;;14.16;93.35
27040;BME280;14589;51.578;7.306;2023-05-07T01:07:43;101117.88;;;14.14;93.40
27040;BME280;14589;51.578;7.306;2023-05-07T01:10:14;101118.22;;;14.11;93.54
27040;BME280;14589;51.578;7.306;2023-05-07T01:12:45;101105.91;;;14.07;93.71
27040;BME280;14589;51.578;7.306;2023-05-07T01:15:17;101115.66;;;14.10;93.85
27040;BME280;14589;51.578;7.306;2023-05-07T01:17:47;101107.25;;;14.03;94.17
27040;BME280;14589;51.578;7.306;2023-05-07T01:20:28;101117.69;;;14.08;94.21
27040;BME280;14589;51.578;7.306;2023-05-07T01:23:00;101109.28;;;14.01;94.20
27040;BME280;14589;51.578;7.306;2023-05-07T01:25:31;101116.81;;;14.07;94.05
27040;BME280;14589;51.578;7.306;2023-05-07T01:28:04;101117.53;;;14.09;94.42
27040;BME280;14589;51.578;7.306;2023-05-07T01:30:40;101115.13;;;14.06;94.21
27040;BME280;14589;51.578;7.306;2023-05-07T01:33:15;101113.25;;;14.07;94.40
27040;BME280;14589;51.578;7.306;2023-05-07T01:35:51;101114.47;;;14.12;94.29
27040;BME280;14589;51.578;7.306;2023-05-07T01:38:23;101111.91;;;14.11;94.13
27040;BME280;14589;51.578;7.306;2023-05-07T01:40:53;101107.97;;;14.13;94.57
27040;BME280;14589;51.578;7.306;2023-05-07T01:43:24;101109.53;;;14.16;94.89
27040;BME280;14589;51.578;7.306;2023-05-07T01:45:55;101109.22;;;14.19;94.33
27040;BME280;14589;51.578;7.306;2023-05-07T01:48:27;101114.13;;;14.15;94.36
27040;BME280;14589;51.578;7.306;2023-05-07T01:50:59;101119.59;;;14.15;94.07
27040;BME280;14589;51.578;7.306;2023-05-07T01:53:35;101109.03;;;14.12;94.31
27040;BME280;14589;51.578;7.306;2023-05-07T01:56:06;101111.75;;;14.12;94.12
27040;BME280;14589;51.578;7.306;2023-05-07T01:58:38;101121.31;;;14.16;94.47
27040;BME280;14589;51.578;7.306;2023-05-07T02:01:08;101118.25;;;14.19;94.45
27040;BME280;14589;51.578;7.306;2023-05-07T02:03:39;101114.50;;;14.21;94.71
27040;BME280;14589;51.578;7.306;2023-05-07T02:06:16;101107.03;;;14.23;94.54
27040;BME280;14589;51.578;7.306;2023-05-07T02:08:47;101120.34;;;14.26;94.51
27040;BME280;14589;51.578;7.306;2023-05-07T02:11:19;101111.13;;;14.27;94.38
27040;BME280;14589;51.578;7.306;2023-05-07T02:13:50;101112.16;;;14.26;94.17
27040;BME280;14589;51.578;7.306;2023-05-07T02:16:20;101103.44;;;14.22;93.96
27040;BME280;14589;51.578;7.306;2023-05-07T02:18:52;101099.84;;;14.22;94.15
27040;BME280;14589;51.578;7.306;2023-05-07T02:21:22;101101.22;;;14.17;94.43
27040;BME280;14589;51.578;7.306;2023-05-07T02:23:53;101102.91;;;14.18;94.12
27040;BME280;14589;51.578;7.306;2023-05-07T02:26:23;101114.13;;;14.15;93.96
27040;BME280;14589;51.578;7.306;2023-05-07T02:28:54;101116.34;;;14.12;94.38
27040;BME280;14589;51.578;7.306;2023-05-07T02:31:24;101100.66;;;14.14;94.46
27040;BME280;14589;51.578;7.306;2023-05-07T02:33:55;101111.06;;;14.10;94.37
27040;BME280;14589;51.578;7.306;2023-05-07T02:36:26;101110.19;;;14.10;94.25
27040;BME280;14589;51.578;7.306;2023-05-07T02:39:06;101105.09;;;14.07;94.55
27040;BME280;14589;51.578;7.306;2023-05-07T02:41:37;101107.97;;;14.05;94.20
27040;BME280;14589;51.578;7.306;2023-05-07T02:44:07;101109.13;;;14.03;94.51
27040;BME280;14589;51.578;7.306;2023-05-07T02:46:38;101119.19;;;14.02;94.34
27040;BME280;14589;51.578;7.306;2023-05-07T02:49:12;101113.34;;;13.97;94.63
27040;BME280;14589;51.578;7.306;2023-05-07T02:51:43;101105.19;;;13.97;94.49
27040;BME280;14589;51.578;7.306;2023-05-07T02:54:19;101101.75;;;13.95;94.16
27040;BME280;14589;51.578;7.306;2023-05-07T02:56:50;101107.19;;;13.95;94.32
27040;BME280;14589;51.578;7.306;2023-05-07T02:59:20;101113.69;;;13.94;94.77
27040;BME280;14589;51.578;7.306;2023-05-07T03:01:51;101107.53;;;13.92;94.89
27040;BME280;14589;51.578;7.306;2023-05-07T03:04:21;101103.75;;;13.85;94.52
27040;BME280;14589;51.578;7.306;2023-05-07T03:06:51;101105.47;;;13.86;94.83
27040;BME280;14589;51.578;7.306;2023-05-07T03:09:22;101110.22;;;13.84;94.86
27040;BME280;14589;51.578;7.306;2023-05-07T03:11:52;101108.50;;;13.83;95.30
27040;BME280;14589;51.578;7.306;2023-05-07T03:14:23;101103.91;;;13.84;95.13
27040;BME280;14589;51.578;7.306;2023-05-07T03:16:53;101111.91;;;13.85;95.38
27040;BME280;14589;51.578;7.306;2023-05-07T03:19:24;101107.63;;;13.83;95.04
27040;BME280;14589;51.578;7.306;2023-05-07T03:21:54;101111.91;;;13.85;94.92
27040;BME280;14589;51.578;7.306;2023-05-07T03:24:25;101114.13;;;13.82;95.23
27040;BME280;14589;51.578;7.306;2023-05-07T03:26:56;101118.22;;;13.86;95.51
27040;BME280;14589;51.578;7.306;2023-05-07T03:29:27;101118.38;;;13.84;95.07
27040;BME280;14589;51.578;7.306;2023-05-07T03:31:58;101108.81;;;13.80;95.25
27040;BME280;14589;51.578;7.306;2023-05-07T03:34:28;101110.53;;;13.81;95.58
27040;BME280;14589;51.578;7.306;2023-05-07T03:36:59;101108.97;;;13.78;95.37
27040;BME280;14589;51.578;7.306;2023-05-07T03:39:29;101110.69;;;13.80;95.79
27040;BME280;14589;51.578;7.306;2023-05-07T03:42:00;101111.56;;;13.80;95.11
27040;BME280;14589;51.578;7.306;2023-05-07T03:44:31;101112.56;;;13.79;95.29
27040;BME280;14589;51.578;7.306;2023-05-07T03:47:04;101115.44;;;13.77;95.20
27040;BME280;14589;51.578;7.306;2023-05-07T03:49:36;101114.28;;;13.80;95.55
27040;BME280;14589;51.578;7.306;2023-05-07T03:52:06;101113.41;;;13.80;95.60
27040;BME280;14589;51.578;7.306;2023-05-07T03:54:37;101112.91;;;13.76;95.10
27040;BME280;14589;51.578;7.306;2023-05-07T03:57:08;101116.63;;;13.75;95.11
27040;BME280;14589;51.578;7.306;2023-05-07T03:59:38;101122.94;;;13.75;95.48
27040;BME280;14589;51.578;7.306;2023-05-07T04:02:09;101120.00;;;13.69;95.13
27040;BME280;14589;51.578;7.306;2023-05-07T04:04:39;101121.88;;;13.68;95.19
27040;BME280;14589;51.578;7.306;2023-05-07T04:07:10;101121.31;;;13.65;95.43
27040;BME280;14589;51.578;7.306;2023-05-07T04:09:45;101129.19;;;13.68;95.26
27040;BME280;14589;51.578;7.306;2023-05-07T04:12:15;101130.53;;;13.64;95.47
27040;BME280;14589;51.578;7.306;2023-05-07T04:14:46;101130.53;;;13.64;95.21
27040;BME280;14589;51.578;7.306;2023-05-07T04:17:17;101132.22;;;13.65;95.05
27040;BME280;14589;51.578;7.306;2023-05-07T04:19:48;101123.66;;;13.60;95.07
27040;BME280;14589;51.578;7.306;2023-05-07T04:22:20;101132.41;;;13.63;95.14
27040;BME280;14589;51.578;7.306;2023-05-07T04:24:51;101135.13;;;13.63;95.37
27040;BME280;14589;51.578;7.306;2023-05-07T04:27:21;101134.25;;;13.63;95.67
27040;BME280;14589;51.578;7.306;2023-05-07T04:29:52;101118.22;;;13.60;95.70
27040;BME280;14589;51.578;7.306;2023-05-07T04:32:26;101128.47;;;13.66;95.49
27040;BME280;14589;51.578;7.306;2023-05-07T04:34:57;101128.63;;;13.64;95.27
27040;BME280;14589;51.578;7.306;2023-05-07T04:37:27;101122.34;;;13.64;95.67
27040;BME280;14589;51.578;7.306;2023-05-07T04:39:58;101131.06;;;13.67;95.13
27040;BME280;14589;51.578;7.306;2023-05-07T04:42:29;101129.50;;;13.65;95.26
27040;BME280;14589;51.578;7.306;2023-05-07T04:45:01;101130.91;;;13.69;95.75
27040;BME280;14589;51.578;7.306;2023-05-07T04:47:32;101137.22;;;13.69;95.12
27040;BME280;14589;51.578;7.306;2023-05-07T04:50:06;101129.91;;;13.70;95.32
27040;BME280;14589;51.578;7.306;2023-05-07T04:52:37;101137.38;;;13.68;95.57
27040;BME280;14589;51.578;7.306;2023-05-07T04:55:09;101140.97;;;13.76;95.35
27040;BME280;14589;51.578;7.306;2023-05-07T04:57:42;101147.00;;;13.80;95.29
27040;BME280;14589;51.578;7.306;2023-05-07T05:00:15;101140.91;;;13.86;95.39
27040;BME280;14589;51.578;7.306;2023-05-07T05:02:49;101142.66;;;13.95;95.44
27040;BME280;14589;51.578;7.306;2023-05-07T05:05:23;101146.44;;;14.02;95.21
27040;BME280;14589;51.578;7.306;2023-05-07T05:07:56;101153.47;;;14.05;94.70
27040;BME280;14589;51.578;7.306;2023-05-07T05:10:27;101156.50;;;14.02;94.66
27040;BME280;14589;51.578;7.306;2023-05-07T05:12:57;101156.50;;;14.02;94.92
27040;BME280;14589;51.578;7.306;2023-05-07T05:15:28;101155.69;;;14.09;94.90
27040;BME280;14589;51.578;7.306;2023-05-07T05:17:59;101152.75;;;14.03;94.42
27040;BME280;14589;51.578;7.306;2023-05-07T05:20:29;101155.19;;;14.06;94.65
27040;BME280;14589;51.578;7.306;2023-05-07T05:23:00;101157.06;;;14.05;94.84
27040;BME280;14589;51.578;7.306;2023-05-07T05:25:30;101151.91;;;14.02;94.58
27040;BME280;14589;51.578;7.306;2023-05-07T05:28:02;101158.91;;;14.05;94.29
27040;BME280;14589;51.578;7.306;2023-05-07T05:30:35;101159.00;;;13.95;94.12
27040;BME280;14589;51.578;7.306;2023-05-07T05:33:06;101160.31;;;14.09;94.58
27040;BME280;14589;51.578;7.306;2023-05-07T05:35:37;101159.78;;;14.05;94.20
27040;BME280;14589;51.578;7.306;2023-05-07T05:38:10;101157.06;;;14.13;94.79
27040;BME280;14589;51.578;7.306;2023-05-07T05:40:40;101150.31;;;14.17;94.45
27040;BME280;14589;51.578;7.306;2023-05-07T05:43:11;101160.56;;;14.24;94.52
27040;BME280;14589;51.578;7.306;2023-05-07T05:45:42;101155.53;;;14.37;94.56
27040;BME280;14589;51.578;7.306;2023-05-07T05:48:12;101164.31;;;14.48;94.35
27040;BME280;14589;51.578;7.306;2023-05-07T05:57:28;101161.91;;;14.95;93.37
27040;BME280;14589;51.578;7.306;2023-05-07T06:13:18;101169.06;;;14.88;92.00
27040;BME280;14589;51.578;7.306;2023-05-07T06:15:49;101164.13;;;15.00;92.54
27040;BME280;14589;51.578;7.306;2023-05-07T06:18:20;101178.66;;;14.92;90.90
27040;BME280;14589;51.578;7.306;2023-05-07T06:20:52;101179.50;;;14.93;91.01
27040;BME280;14589;51.578;7.306;2023-05-07T06:23:28;101181.06;;;15.04;90.65
27040;BME280;14589;51.578;7.306;2023-05-07T06:25:59;101182.81;;;15.21;90.99
27040;BME280;14589;51.578;7.306;2023-05-07T06:28:34;101182.13;;;15.27;91.50
27040;BME280;14589;51.578;7.306;2023-05-07T06:31:15;101180.47;;;15.42;91.43
27040;BME280;14589;51.578;7.306;2023-05-07T06:33:49;101179.94;;;15.38;90.31
27040;BME280;14589;51.578;7.306;2023-05-07T06:36:20;101195.81;;;15.35;89.91
27040;BME280;14589;51.578;7.306;2023-05-07T06:38:51;101203.66;;;15.38;90.28
27040;BME280;14589;51.578;7.306;2023-05-07T06:41:21;101198.03;;;15.31;89.60
27040;BME280;14589;51.578;7.306;2023-05-07T06:43:52;101207.78;;;15.42;90.57
27040;BME280;14589;51.578;7.306;2023-05-07T06:46:34;101203.75;;;15.54;90.42
27040;BME280;14589;51.578;7.306;2023-05-07T06:49:04;101207.16;;;15.64;90.29
27040;BME280;14589;51.578;7.306;2023-05-07T06:51:35;101205.78;;;15.68;89.60
27040;BME280;14589;51.578;7.306;2023-05-07T06:54:07;101204.25;;;15.66;88.32
27040;BME280;14589;51.578;7.306;2023-05-07T06:56:40;101206.97;;;15.74;88.81
27040;BME280;14589;51.578;7.306;2023-05-07T06:59:12;101203.91;;;15.77;89.29
27040;BME280;14589;51.578;7.306;2023-05-07T07:01:44;101195.34;;;15.80;88.42
27040;BME280;14589;51.578;7.306;2023-05-07T07:04:16;101202.19;;;15.68;87.55
27040;BME280;14589;51.578;7.306;2023-05-07T07:06:52;101192.47;;;15.73;88.26
27040;BME280;14589;51.578;7.306;2023-05-07T07:09:23;101197.75;;;15.83;88.74
27040;BME280;14589;51.578;7.306;2023-05-07T07:11:53;101205.97;;;15.83;87.77
27040;BME280;14589;51.578;7.306;2023-05-07T07:14:23;101192.47;;;15.98;87.80
27040;BME280;14589;51.578;7.306;2023-05-07T07:16:56;101200.63;;;16.14;87.61
27040;BME280;14589;51.578;7.306;2023-05-07T07:19:27;101203.16;;;16.32;87.71
27040;BME280;14589;51.578;7.306;2023-05-07T07:21:59;101210.47;;;16.55;87.88
27040;BME280;14589;51.578;7.306;2023-05-07T07:24:30;101207.72;;;16.72;87.00
27040;BME280;14589;51.578;7.306;2023-05-07T07:27:03;101203.09;;;16.72;85.15
27040;BME280;14589;51.578;7.306;2023-05-07T07:29:35;101204.28;;;16.78;84.48
27040;BME280;14589;51.578;7.306;2023-05-07T07:32:06;101202.69;;;16.83;84.08
27040;BME280;14589;51.578;7.306;2023-05-07T07:34:37;101207.28;;;16.91;84.64
27040;BME280;14589;51.578;7.306;2023-05-07T07:37:07;101203.22;;;16.79;82.92
27040;BME280;14589;51.578;7.306;2023-05-07T07:39:39;101211.00;;;16.98;83.91
27040;BME280;14589;51.578;7.306;2023-05-07T07:42:11;101215.25;;;17.09;84.28
27040;BME280;14589;51.578;7.306;2023-05-07T07:44:42;101203.22;;;17.10;82.14
27040;BME280;14589;51.578;7.306;2023-05-07T07:47:14;101218.63;;;17.19;83.06
27040;BME280;14589;51.578;7.306;2023-05-07T07:49:46;101203.34;;;17.24;82.77
27040;BME280;14589;51.578;7.306;2023-05-07T07:52:18;101208.63;;;17.26;81.62
27040;BME280;14589;51.578;7.306;2023-05-07T07:54:49;101210.84;;;17.30;81.22
27040;BME280;14589;51.578;7.306;2023-05-07T07:57:20;101225.56;;;17.29;80.98
27040;BME280;14589;51.578;7.306;2023-05-07T07:59:51;101218.44;;;17.20;80.16
27040;BME280;14589;51.578;7.306;2023-05-07T08:02:23;101221.53;;;17.17;80.40
27040;BME280;14589;51.578;7.306;2023-05-07T08:04:54;101218.88;;;17.32;79.95
27040;BME280;14589;51.578;7.306;2023-05-07T08:07:26;101225.41;;;17.54;80.34
27040;BME280;14589;51.578;7.306;2023-05-07T08:09:56;101223.69;;;17.61;80.47
27040;BME280;14589;51.578;7.306;2023-05-07T08:12:28;101232.22;;;17.66;77.63
27040;BME280;14589;51.578;7.306;2023-05-07T08:14:59;101233.63;;;17.54;77.67
27040;BME280;14589;51.578;7.306;2023-05-07T08:17:29;101226.25;;;17.31;78.60
27040;BME280;14589;51.578;7.306;2023-05-07T08:20:00;101228.38;;;17.52;78.64
27040;BME280;14589;51.578;7.306;2023-05-07T08:22:31;101224.38;;;17.55;78.66
27040;BME280;14589;51.578;7.306;2023-05-07T08:25:02;101232.53;;;17.71;79.20
27040;BME280;14589;51.578;7.306;2023-05-07T08:27:32;101222.97;;;17.90;78.25
27040;BME280;14589;51.578;7.306;2023-05-07T08:30:04;101231.38;;;17.88;77.89
27040;BME280;14589;51.578;7.306;2023-05-07T08:32:34;101232.97;;;17.83;77.96
27040;BME280;14589;51.578;7.306;2023-05-07T08:35:05;101227.16;;;18.00;77.89
27040;BME280;14589;51.578;7.306;2023-05-07T08:37:36;101240.13;;;18.06;77.53
27040;BME280;14589;51.578;7.306;2023-05-07T08:40:06;101238.03;;;18.08;76.86
27040;BME280;14589;51.578;7.306;2023-05-07T08:42:39;101235.69;;;18.05;76.24
27040;BME280;14589;51.578;7.306;2023-05-07T08:45:10;101238.16;;;18.15;76.71
27040;BME280;14589;51.578;7.306;2023-05-07T09:02:53;101227.56;;;18.64;72.77
27040;BME280;14589;51.578;7.306;2023-05-07T09:05:23;101239.78;;;18.76;72.93
27040;BME280;14589;51.578;7.306;2023-05-07T09:07:55;101235.03;;;18.70;73.09
27040;BME280;14589;51.578;7.306;2023-05-07T09:10:27;101239.59;;;18.78;73.22
27040;BME280;14589;51.578;7.306;2023-05-07T09:12:57;101228.13;;;18.74;74.16
27040;BME280;14589;51.578;7.306;2023-05-07T09:15:28;101238.09;;;18.75;73.39
27040;BME280;14589;51.578;7.306;2023-05-07T09:18:00;101241.13;;;18.80;72.57
27040;BME280;14589;51.578;7.306;2023-05-07T09:20:37;101234.38;;;18.97;72.74
27040;BME280;14589;51.578;7.306;2023-05-07T09:23:09;101239.94;;;19.19;71.86
27040;BME280;14589;51.578;7.306;2023-05-07T09:25:40;101243.31;;;19.50;71.20
27040;BME280;14589;51.578;7.306;2023-05-07T09:28:18;101239.06;;;19.69;70.30
27040;BME280;14589;51.578;7.306;2023-05-07T09:33:36;101235.88;;;19.87;69.36
27040;BME280;14589;51.578;7.306;2023-05-07T09:36:09;101230.56;;;20.13;69.12
27040;BME280;14589;51.578;7.306;2023-05-07T09:38:41;101240.56;;;20.70;67.91
27040;BME280;14589;51.578;7.306;2023-05-07T09:41:13;101242.81;;;20.87;67.66
27040;BME280;14589;51.578;7.306;2023-05-07T09:44:06;101236.72;;;21.39;66.55
27040;BME280;14589;51.578;7.306;2023-05-07T09:46:43;101232.94;;;21.67;63.96
27040;BME280;14589;51.578;7.306;2023-05-07T09:49:23;101238.50;;;21.80;62.81
27040;BME280;14589;51.578;7.306;2023-05-07T09:51:59;101229.34;;;21.60;62.38
27040;BME280;14589;51.578;7.306;2023-05-07T09:54:31;101228.06;;;21.62;62.17
27040;BME280;14589;51.578;7.306;2023-05-07T09:57:05;101221.28;;;21.58;61.72
27040;BME280;14589;51.578;7.306;2023-05-07T09:59:38;101220.75;;;22.15;61.71
27040;BME280;14589;51.578;7.306;2023-05-07T10:02:13;101223.91;;;22.26;61.20
27040;BME280;14589;51.578;7.306;2023-05-07T10:04:52;101223.66;;;22.73;60.39
27040;BME280;14589;51.578;7.306;2023-05-07T10:07:28;101228.38;;;22.40;58.94
27040;BME280;14589;51.578;7.306;2023-05-07T10:10:04;101215.19;;;22.22;58.09
27040;BME280;14589;51.578;7.306;2023-05-07T10:12:40;101215.19;;;22.29;58.28
27040;BME280;14589;51.578;7.306;2023-05-07T10:15:17;101214.94;;;22.63;55.75
27040;BME280;14589;51.578;7.306;2023-05-07T10:17:53;101213.81;;;22.90;55.76
27040;BME280;14589;51.578;7.306;2023-05-07T10:20:24;101216.13;;;23.00;55.94
27040;BME280;14589;51.578;7.306;2023-05-07T10:22:58;101218.44;;;23.10;57.29
27040;BME280;14589;51.578;7.306;2023-05-07T10:25:36;101214.16;;;23.58;56.08
27040;BME280;14589;51.578;7.306;2023-05-07T10:28:12;101212.78;;;23.36;53.72
27040;BME280;14589;51.578;7.306;2023-05-07T10:33:54;101212.75;;;23.81;52.98
27040;BME280;14589;51.578;7.306;2023-05-07T10:36:27;101218.28;;;24.12;52.54
27040;BME280;14589;51.578;7.306;2023-05-07T10:38:58;101208.34;;;24.29;47.91
27040;BME280;14589;51.578;7.306;2023-05-07T10:41:29;101210.69;;;24.01;48.14
27040;BME280;14589;51.578;7.306;2023-05-07T10:44:00;101209.69;;;24.20;48.59
27040;BME280;14589;51.578;7.306;2023-05-07T10:46:34;101209.78;;;24.07;48.68
27040;BME280;14589;51.578;7.306;2023-05-07T10:49:14;101213.16;;;24.09;47.90
27040;BME280;14589;51.578;7.306;2023-05-07T10:58:29;101221.28;;;23.41;46.59
27040;BME280;14589;51.578;7.306;2023-05-07T11:01:08;101211.91;;;23.42;46.96
27040;BME280;14589;51.578;7.306;2023-05-07T11:04:12;101203.59;;;23.80;48.53
27040;BME280;14589;51.578;7.306;2023-05-07T11:09:54;101206.53;;;23.85;47.66
27040;BME280;14589;51.578;7.306;2023-05-07T11:15:13;101200.66;;;24.74;47.09
27040;BME280;14589;51.578;7.306;2023-05-07T11:17:54;101201.19;;;25.01;46.54
27040;BME280;14589;51.578;7.306;2023-05-07T11:20:44;101197.13;;;25.04;43.39
27040;BME280;14589;51.578;7.306;2023-05-07T11:26:12;101200.41;;;25.30;44.50
27040;BME280;14589;51.578;7.306;2023-05-07T11:28:43;101199.69;;;25.35;43.47
27040;BME280;14589;51.578;7.306;2023-05-07T11:31:20;101203.00;;;25.25;43.25
27040;BME280;14589;51.578;7.306;2023-05-07T11:33:52;101203.28;;;25.06;44.91
27040;BME280;14589;51.578;7.306;2023-05-07T11:36:25;101193.19;;;24.93;44.49
27040;BME280;14589;51.578;7.306;2023-05-07T11:38:59;101196.19;;;25.10;45.45
27040;BME280;14589;51.578;7.306;2023-05-07T11:41:36;101195.84;;;24.81;44.35
27040;BME280;14589;51.578;7.306;2023-05-07T11:44:09;101201.88;;;24.78;45.61
27040;BME280;14589;51.578;7.306;2023-05-07T11:46:43;101199.94;;;24.61;44.92
27040;BME280;14589;51.578;7.306;2023-05-07T11:49:14;101196.81;;;24.50;45.70
27040;BME280;14589;51.578;7.306;2023-05-07T11:51:45;101198.47;;;24.33;45.53
27040;BME280;14589;51.578;7.306;2023-05-07T11:54:16;101193.09;;;24.38;46.18
27040;BME280;14589;51.578;7.306;2023-05-07T11:56:47;101207.47;;;24.53;45.09
27040;BME280;14589;51.578;7.306;2023-05-07T11:59:18;101201.66;;;24.80;45.33
27040;BME280;14589;51.578;7.306;2023-05-07T12:01:48;101193.94;;;25.00;44.99
27040;BME280;14589;51.578;7.306;2023-05-07T12:04:19;101202.81;;;24.90;44.76
27040;BME280;14589;51.578;7.306;2023-05-07T12:06:54;101199.22;;;25.38;44.36
27040;BME280;14589;51.578;7.306;2023-05-07T12:09:25;101208.78;;;25.60;43.04
27040;BME280;14589;51.578;7.306;2023-05-07T12:11:56;101201.25;;;25.91;43.55
27040;BME280;14589;51.578;7.306;2023-05-07T12:14:29;101195.41;;;25.51;42.91
27040;BME280;14589;51.578;7.306;2023-05-07T12:17:00;101195.75;;;25.43;42.96
27040;BME280;14589;51.578;7.306;2023-05-07T12:19:34;101200.91;;;25.39;43.90
27040;BME280;14589;51.578;7.306;2023-05-07T12:22:05;101204.72;;;25.26;44.06
27040;BME280;14589;51.578;7.306;2023-05-07T12:24:46;101206.44;;;24.91;45.56
27040;BME280;14589;51.578;7.306;2023-05-07T12:27:17;101195.41;;;25.21;45.35
27040;BME280;14589;51.578;7.306;2023-05-07T12:29:49;101194.31;;;25.22;44.88
27040;BME280;14589;51.578;7.306;2023-05-07T12:32:20;101197.28;;;25.38;45.47
27040;BME280;14589;51.578;7.306;2023-05-07T12:34:51;101204.22;;;25.48;44.29
27040;BME280;14589;51.578;7.306;2023-05-07T12:37:24;101191.16;;;25.18;43.78
27040;BME280;14589;51.578;7.306;2023-05-07T12:40:06;101198.97;;;25.10;44.31
27040;BME280;14589;51.578;7.306;2023-05-07T12:42:39;101203.41;;;25.29;43.16
27040;BME280;14589;51.578;7.306;2023-05-07T12:45:11;101203.81;;;25.14;44.02
27040;BME280;14589;51.578;7.306;2023-05-07T12:47:45;101199.03;;;25.03;44.11
27040;BME280;14589;51.578;7.306;2023-05-07T12:50:16;101199.78;;;24.55;43.96
27040;BME280;14589;51.578;7.306;2023-05-07T12:52:48;101206.75;;;25.01;43.37
27040;BME280;14589;51.578;7.306;2023-05-07T12:55:18;101203.72;;;24.66;43.43
27040;BME280;14589;51.578;7.306;2023-05-07T12:57:49;101215.66;;;24.67;43.67
27040;BME280;14589;51.578;7.306;2023-05-07T13:00:36;101215.56;;;24.55;44.21
27040;BME280;14589;51.578;7.306;2023-05-07T13:03:07;101209.13;;;24.36;44.33
27040;BME280;14589;51.578;7.306;2023-05-07T13:05:38;101217.94;;;24.27;44.86
27040;BME280;14589;51.578;7.306;2023-05-07T13:08:09;101213.91;;;23.98;46.00
27040;BME280;14589;51.578;7.306;2023-05-07T13:10:39;101218.25;;;24.18;44.81
27040;BME280;14589;51.578;7.306;2023-05-07T13:13:10;101220.09;;;24.00;45.01
27040;BME280;14589;51.578;7.306;2023-05-07T13:15:40;101217.41;;;23.87;46.15
27040;BME280;14589;51.578;7.306;2023-05-07T13:18:11;101223.94;;;23.99;45.85
27040;BME280;14589;51.578;7.306;2023-05-07T13:20:41;101217.75;;;23.97;45.16
27040;BME280;14589;51.578;7.306;2023-05-07T13:23:12;101220.97;;;23.94;45.52
27040;BME280;14589;51.578;7.306;2023-05-07T13:25:42;101213.06;;;23.97;46.62
27040;BME280;14589;51.578;7.306;2023-05-07T13:28:14;101218.94;;;23.51;45.91
27040;BME280;14589;51.578;7.306;2023-05-07T13:30:46;101208.34;;;23.28;47.71
27040;BME280;14589;51.578;7.306;2023-05-07T13:33:16;101219.88;;;23.25;48.91
27040;BME280;14589;51.578;7.306;2023-05-07T13:35:47;101228.50;;;22.84;49.68
27040;BME280;14589;51.578;7.306;2023-05-07T13:38:17;101216.81;;;22.95;50.19
27040;BME280;14589;51.578;7.306;2023-05-07T13:40:48;101221.00;;;23.05;50.27
27040;BME280;14589;51.578;7.306;2023-05-07T13:43:18;101226.97;;;23.08;50.51
27040;BME280;14589;51.578;7.306;2023-05-07T13:45:49;101218.03;;;23.06;49.88
27040;BME280;14589;51.578;7.306;2023-05-07T13:48:19;101226.63;;;22.78;50.38
27040;BME280;14589;51.578;7.306;2023-05-07T13:50:50;101223.00;;;22.78;50.16
27040;BME280;14589;51.578;7.306;2023-05-07T13:53:21;101221.09;;;22.65;49.96
27040;BME280;14589;51.578;7.306;2023-05-07T13:55:51;101221.53;;;22.49;51.03
27040;BME280;14589;51.578;7.306;2023-05-07T13:58:22;101232.59;;;22.55;50.97
27040;BME280;14589;51.578;7.306;2023-05-07T14:00:52;101221.53;;;22.49;50.34
27040;BME280;14589;51.578;7.306;2023-05-07T14:03:23;101226.69;;;22.39;50.23
27040;BME280;14589;51.578;7.306;2023-05-07T14:05:53;101215.81;;;22.44;50.70
27040;BME280;14589;51.578;7.306;2023-05-07T14:08:25;101233.66;;;22.54;50.50
27040;BME280;14589;51.578;7.306;2023-05-07T14:10:56;101233.88;;;22.53;50.05
27040;BME280;14589;51.578;7.306;2023-05-07T14:13:26;101234.50;;;22.55;50.35